Time;durP1;ratioP1;P1;durP2;ratioP2;P2;SDS_P1;SDS_P2;PMS_P1;PMS_P2;Temp;Humidity;BMP_temperature;BMP_pressure;BME280_temperature;BME280_humidity;BME280_pressure;Samples;Min_cycle;Max_cycle;Signal;HPM_P1;HPM_P2
2023/10/19 00:00:48;;;;;;;19.50;10.83;;;7.50;99.90;;;;;;5056204;28;20857;-66
2023/10/19 00:03:14;;;;;;;15.87;11.67;;;7.50;99.90;;;;;;5059303;28;20856;-67
2023/10/19 00:05:44;;;;;;;15.20;12.53;;;7.50;99.90;;;;;;5066920;28;20806;-67
2023/10/19 00:08:20;;;;;;;15.80;10.77;;;7.50;99.90;;;;;;5051353;28;20810;-65
2023/10/19 00:10:50;;;;;;;20.10;13.13;;;7.50;99.90;;;;;;5053574;28;20452;-66
2023/10/19 00:13:18;;;;;;;14.50;10.60;;;7.50;99.90;;;;;;5065311;28;20445;-66
2023/10/19 00:15:51;;;;;;;16.60;12.23;;;7.50;99.90;;;;;;5063758;28;20441;-65
2023/10/19 00:20:51;;;;;;;13.83;11.00;;;7.50;99.90;;;;;;5056273;28;20464;-65
2023/10/19 00:23:34;;;;;;;14.37;10.50;;;7.50;99.90;;;;;;5056748;28;20449;-67
2023/10/19 00:26:10;;;;;;;15.37;10.90;;;7.50;99.90;;;;;;5039619;28;20443;-65
2023/10/19 00:28:38;;;;;;;14.43;11.03;;;7.50;99.90;;;;;;5044931;28;20457;-67
2023/10/19 00:31:08;;;;;;;14.93;11.87;;;7.50;99.90;;;;;;5040522;28;20445;-65
2023/10/19 00:33:38;;;;;;;16.27;12.50;;;7.50;99.90;;;;;;5064856;28;20485;-66
2023/10/19 00:36:08;;;;;;;15.73;11.23;;;7.40;99.90;;;;;;5052144;28;20437;-65
2023/10/19 00:38:50;;;;;;;14.10;11.53;;;7.40;99.90;;;;;;5041080;28;20455;-65
2023/10/19 00:41:24;;;;;;;12.97;9.63;;;7.40;99.90;;;;;;5066056;28;20461;-66
2023/10/19 00:43:52;;;;;;;16.43;11.33;;;7.40;99.90;;;;;;5065797;28;20437;-65
2023/10/19 00:48:48;;;;;;;16.40;12.37;;;7.30;99.90;;;;;;5066303;28;20416;-65
2023/10/19 00:54:10;;;;;;;14.80;10.80;;;7.30;99.90;;;;;;5068437;28;20943;-65
2023/10/19 00:56:36;;;;;;;14.37;11.07;;;7.20;99.90;;;;;;5061044;28;20433;-65
2023/10/19 00:59:14;;;;;;;19.50;11.70;;;7.20;99.90;;;;;;5052940;28;20433;-66
2023/10/19 01:01:48;;;;;;;13.63;11.30;;;7.20;99.90;;;;;;5067005;28;20479;-66
2023/10/19 01:04:23;;;;;;;17.03;12.00;;;7.20;99.90;;;;;;5036543;28;20429;-66
2023/10/19 01:09:44;;;;;;;19.37;12.70;;;7.20;99.90;;;;;;5036913;28;20433;-66
2023/10/19 01:15:18;;;;;;;19.03;13.27;;;7.20;99.90;;;;;;5053231;28;20266;-66
2023/10/19 01:17:45;;;;;;;20.50;12.70;;;7.10;99.90;;;;;;5061814;28;20419;-66
2023/10/19 01:20:20;;;;;;;21.83;13.37;;;7.10;99.90;;;;;;5053362;28;20458;-67
2023/10/19 01:28:42;;;;;;;16.67;12.00;;;7.20;99.90;;;;;;5071876;28;20433;-64
2023/10/19 01:33:55;;;;;;;14.63;11.87;;;7.10;99.90;;;;;;5053904;28;20758;-62
2023/10/19 01:38:48;;;;;;;18.17;11.77;;;7.10;99.90;;;;;;5043954;28;20459;-64
2023/10/19 01:41:18;;;;;;;14.90;12.10;;;7.10;99.90;;;;;;5048464;28;20551;-64
2023/10/19 01:43:46;;;;;;;22.93;13.87;;;7.10;99.90;;;;;;5027580;28;20458;-64
2023/10/19 01:46:13;;;;;;;18.00;12.40;;;7.10;99.90;;;;;;5038075;28;20472;-64
2023/10/19 01:48:43;;;;;;;17.13;12.27;;;7.10;99.90;;;;;;5038953;28;20467;-64
2023/10/19 01:51:11;;;;;;;19.37;13.53;;;7.10;99.90;;;;;;5050579;28;20422;-64
2023/10/19 01:53:43;;;;;;;21.17;16.07;;;7.10;99.90;;;;;;5045417;28;20461;-62
2023/10/19 01:56:10;;;;;;;22.13;15.37;;;7.10;99.90;;;;;;5046815;28;20433;-64
2023/10/19 01:58:37;;;;;;;23.77;16.80;;;7.10;99.90;;;;;;5038464;28;20419;-63
2023/10/19 02:01:46;;;;;;;33.80;20.43;;;7.10;99.90;;;;;;5046436;28;20468;-62
2023/10/19 02:03:57;;;;;;;22.77;15.90;;;7.10;99.90;;;;;;5037417;28;20462;-63
2023/10/19 02:06:36;;;;;;;27.97;18.40;;;7.10;99.90;;;;;;5046015;28;20450;-64
2023/10/19 02:09:09;;;;;;;25.33;14.63;;;7.10;99.90;;;;;;5046218;28;20418;-64
2023/10/19 02:11:37;;;;;;;18.57;15.30;;;7.10;99.90;;;;;;5056926;28;20441;-64
2023/10/19 02:14:13;;;;;;;16.17;12.33;;;7.10;99.90;;;;;;5050103;28;20533;-64
2023/10/19 02:16:39;;;;;;;17.30;13.07;;;7.20;99.90;;;;;;5049257;28;20452;-63
2023/10/19 02:19:05;;;;;;;18.33;14.33;;;7.20;99.90;;;;;;5052912;28;20917;-63
2023/10/19 02:21:30;;;;;;;17.60;13.50;;;7.20;99.90;;;;;;5054187;28;20534;-64
2023/10/19 02:23:58;;;;;;;21.70;13.37;;;7.20;99.90;;;;;;5058776;28;20206;-64
2023/10/19 02:26:27;;;;;;;21.30;13.73;;;7.20;99.90;;;;;;5054883;28;20186;-64
2023/10/19 02:28:53;;;;;;;20.67;14.90;;;7.20;99.90;;;;;;5051465;28;21123;-64
2023/10/19 02:31:21;;;;;;;17.10;13.23;;;7.20;99.90;;;;;;5049137;28;20495;-64
2023/10/19 02:34:00;;;;;;;16.53;14.73;;;7.20;99.90;;;;;;5051728;28;20240;-63
2023/10/19 02:36:30;;;;;;;15.90;12.60;;;7.20;99.90;;;;;;5053923;28;20438;-64
2023/10/19 02:39:07;;;;;;;21.13;14.10;;;7.20;99.90;;;;;;5053865;28;20438;-65
2023/10/19 02:41:36;;;;;;;18.20;13.07;;;7.30;99.90;;;;;;5061651;28;20931;-65
2023/10/19 02:44:09;;;;;;;18.27;13.10;;;7.20;99.90;;;;;;5062829;28;20437;-65
2023/10/19 02:46:38;;;;;;;17.17;13.40;;;7.20;99.90;;;;;;5053636;28;20445;-65
2023/10/19 02:49:12;;;;;;;22.47;13.90;;;7.30;99.90;;;;;;5053247;28;20794;-64
2023/10/19 02:51:45;;;;;;;16.40;13.40;;;7.30;99.90;;;;;;5051590;28;20432;-65
2023/10/19 02:54:19;;;;;;;19.30;14.67;;;7.20;99.90;;;;;;5051100;28;20445;-65
2023/10/19 02:56:51;;;;;;;20.33;16.33;;;7.20;99.90;;;;;;5053016;28;20422;-65
2023/10/19 02:59:24;;;;;;;18.53;12.70;;;7.30;99.90;;;;;;5048353;28;20430;-65
2023/10/19 03:02:00;;;;;;;16.30;12.63;;;7.30;99.90;;;;;;5052955;28;20446;-63
2023/10/19 03:04:28;;;;;;;19.30;13.73;;;7.30;99.90;;;;;;5050364;28;20455;-64
2023/10/19 03:06:56;;;;;;;19.50;13.83;;;7.30;99.90;;;;;;5052807;28;20874;-65
2023/10/19 03:09:23;;;;;;;16.67;13.73;;;7.30;99.90;;;;;;5054647;28;20602;-65
2023/10/19 03:12:10;;;;;;;19.47;14.50;;;7.30;99.90;;;;;;5061178;28;20421;-65
2023/10/19 03:14:37;;;;;;;15.53;12.90;;;7.30;99.90;;;;;;5048336;28;20904;-64
2023/10/19 03:17:04;;;;;;;19.90;13.93;;;7.30;99.90;;;;;;5054300;28;20520;-65
2023/10/19 03:19:29;;;;;;;16.53;12.90;;;7.30;99.90;;;;;;5054385;28;20505;-64
2023/10/19 03:21:55;;;;;;;20.80;14.20;;;7.30;99.90;;;;;;5059888;28;20470;-64
2023/10/19 03:24:36;;;;;;;18.90;13.00;;;7.30;99.90;;;;;;5056529;28;20269;-65
2023/10/19 03:27:22;;;;;;;18.83;13.63;;;7.30;99.90;;;;;;5061934;28;20428;-63
2023/10/19 03:29:55;;;;;;;21.47;13.83;;;7.30;99.90;;;;;;5052764;28;21101;-64
2023/10/19 03:32:32;;;;;;;19.43;12.93;;;7.30;99.90;;;;;;5053594;28;20512;-64
2023/10/19 03:35:01;;;;;;;17.90;13.93;;;7.30;99.90;;;;;;5060268;28;20443;-64
2023/10/19 03:37:31;;;;;;;18.23;13.30;;;7.30;99.90;;;;;;5058022;28;20427;-64
2023/10/19 03:39:58;;;;;;;18.00;13.37;;;7.30;99.90;;;;;;5049595;28;20492;-64
2023/10/19 03:42:34;;;;;;;18.13;12.20;;;7.30;99.90;;;;;;5053162;28;20768;-64
2023/10/19 03:45:12;;;;;;;17.33;15.03;;;7.30;99.90;;;;;;5052538;28;20484;-62
2023/10/19 03:47:38;;;;;;;19.23;14.47;;;7.20;99.90;;;;;;5052573;28;20453;-64
2023/10/19 03:50:08;;;;;;;18.00;14.47;;;7.30;99.90;;;;;;5058943;28;20433;-64
2023/10/19 03:52:37;;;;;;;19.33;13.00;;;7.30;99.90;;;;;;5054353;28;20437;-64
2023/10/19 03:55:23;;;;;;;17.30;13.10;;;7.30;99.90;;;;;;5060783;28;20518;-63
2023/10/19 03:57:54;;;;;;;24.00;16.77;;;7.20;99.90;;;;;;5057286;28;20787;-64
2023/10/19 04:00:24;;;;;;;19.53;13.70;;;7.20;99.90;;;;;;5051094;28;20546;-64
2023/10/19 04:02:55;;;;;;;19.20;14.50;;;7.20;99.90;;;;;;5055033;28;20450;-64
2023/10/19 04:05:22;;;;;;;21.63;14.67;;;7.20;99.90;;;;;;5053606;28;20434;-64
2023/10/19 04:07:54;;;;;;;17.57;15.00;;;7.20;99.90;;;;;;5048553;28;20414;-65
2023/10/19 04:10:30;;;;;;;21.80;14.80;;;7.20;99.90;;;;;;5060036;28;20831;-64
2023/10/19 04:12:59;;;;;;;22.93;15.17;;;7.20;99.90;;;;;;5057644;28;20448;-64
2023/10/19 04:15:26;;;;;;;29.67;15.97;;;7.10;99.90;;;;;;5064868;28;20446;-64
2023/10/19 04:17:54;;;;;;;23.00;16.00;;;7.10;99.90;;;;;;5054914;28;21019;-63
2023/10/19 04:22:50;;;;;;;21.10;14.60;;;7.10;99.90;;;;;;5053378;28;20459;-64
2023/10/19 04:25:25;;;;;;;24.67;14.80;;;7.10;99.90;;;;;;5064985;28;20420;-63
2023/10/19 04:27:51;;;;;;;20.53;13.80;;;7.10;99.90;;;;;;5053814;28;20429;-64
2023/10/19 04:30:18;;;;;;;19.57;15.93;;;7.10;99.90;;;;;;5061954;28;20920;-64
2023/10/19 04:32:47;;;;;;;19.50;14.20;;;7.00;99.90;;;;;;5055513;28;20198;-62
2023/10/19 04:35:14;;;;;;;22.60;14.87;;;7.00;99.90;;;;;;5060074;28;20528;-63
2023/10/19 04:37:44;;;;;;;20.43;14.80;;;7.00;99.90;;;;;;5061372;28;20453;-64
2023/10/19 04:40:10;;;;;;;20.03;14.43;;;7.00;99.90;;;;;;5047779;28;20551;-64
2023/10/19 04:42:37;;;;;;;21.70;16.20;;;7.00;99.90;;;;;;5053509;28;20434;-64
2023/10/19 04:45:05;;;;;;;22.17;14.53;;;7.00;99.90;;;;;;5059435;28;20789;-62
2023/10/19 04:47:31;;;;;;;20.80;14.63;;;6.90;99.90;;;;;;5056781;28;20548;-65
2023/10/19 04:49:57;;;;;;;22.47;15.20;;;6.90;99.90;;;;;;5039028;28;20449;-63
2023/10/19 04:52:22;;;;;;;20.80;15.00;;;6.90;99.90;;;;;;5052450;28;20441;-63
2023/10/19 04:54:48;;;;;;;23.47;16.60;;;6.90;99.90;;;;;;5054504;28;20526;-63
2023/10/19 04:57:13;;;;;;;24.30;16.80;;;7.00;99.90;;;;;;5055901;28;20184;-63
2023/10/19 04:59:39;;;;;;;20.90;14.30;;;6.90;99.90;;;;;;5045853;28;20282;-64
2023/10/19 05:02:06;;;;;;;26.63;16.07;;;6.90;99.90;;;;;;5056239;28;20191;-64
2023/10/19 05:04:31;;;;;;;19.53;15.70;;;6.90;99.90;;;;;;5054570;28;20325;-63
2023/10/19 05:06:57;;;;;;;21.17;15.80;;;6.90;99.90;;;;;;5067908;28;20480;-64
2023/10/19 05:09:23;;;;;;;21.63;16.50;;;6.90;99.90;;;;;;5066847;28;20585;-63
2023/10/19 05:11:48;;;;;;;19.53;15.57;;;6.90;99.90;;;;;;5072012;28;20238;-62
2023/10/19 05:14:14;;;;;;;20.13;13.90;;;6.90;99.90;;;;;;5054646;28;20228;-64
2023/10/19 05:16:40;;;;;;;25.50;15.93;;;6.90;99.90;;;;;;5053365;28;20195;-64
2023/10/19 05:19:06;;;;;;;24.17;16.87;;;6.80;99.90;;;;;;5063502;28;20210;-65
2023/10/19 05:21:31;;;;;;;19.63;15.73;;;6.90;99.90;;;;;;5053407;28;20469;-65
2023/10/19 05:24:00;;;;;;;19.07;15.77;;;6.80;99.90;;;;;;5059390;28;20241;-64
2023/10/19 05:26:26;;;;;;;24.20;16.87;;;6.80;99.90;;;;;;5066744;28;20250;-65
2023/10/19 05:28:52;;;;;;;25.70;17.00;;;6.80;99.90;;;;;;5065800;28;20452;-64
2023/10/19 05:31:18;;;;;;;20.70;15.90;;;6.80;99.90;;;;;;5057772;28;20477;-64
2023/10/19 05:33:43;;;;;;;24.43;16.93;;;6.80;99.90;;;;;;5068339;28;20214;-65
2023/10/19 05:36:09;;;;;;;24.87;17.40;;;6.70;99.90;;;;;;5068653;28;20214;-63
2023/10/19 05:38:35;;;;;;;20.17;15.53;;;6.70;99.90;;;;;;5065865;28;20228;-64
2023/10/19 05:41:00;;;;;;;24.07;17.53;;;6.60;99.90;;;;;;5053044;28;20203;-64
2023/10/19 05:43:28;;;;;;;22.83;16.20;;;6.60;99.90;;;;;;5062009;28;20207;-64
2023/10/19 05:45:53;;;;;;;23.13;16.80;;;6.50;99.90;;;;;;5068795;28;20179;-63
2023/10/19 05:48:20;;;;;;;24.47;17.57;;;6.50;99.90;;;;;;5068606;28;20471;-65
2023/10/19 05:50:46;;;;;;;26.13;15.37;;;6.50;99.90;;;;;;5065163;28;20290;-64
2023/10/19 05:53:11;;;;;;;23.00;17.43;;;6.50;99.90;;;;;;5059431;28;20472;-63
2023/10/19 05:55:39;;;;;;;27.63;17.53;;;6.60;99.90;;;;;;5070015;28;20178;-63
2023/10/19 05:58:05;;;;;;;24.30;16.93;;;6.60;99.90;;;;;;5060214;28;20600;-65
2023/10/19 06:00:31;;;;;;;25.80;17.80;;;6.60;99.90;;;;;;5053001;28;20468;-64
2023/10/19 06:02:57;;;;;;;25.13;16.13;;;6.60;99.90;;;;;;5053521;28;20554;-63
2023/10/19 06:05:23;;;;;;;23.80;18.83;;;6.50;99.90;;;;;;5058959;28;20536;-64
2023/10/19 06:07:50;;;;;;;26.43;17.23;;;6.60;99.90;;;;;;5069687;28;20186;-64
2023/10/19 06:10:22;;;;;;;26.53;17.57;;;6.50;99.90;;;;;;5044374;28;20972;-64
2023/10/19 06:12:52;;;;;;;27.40;17.20;;;6.50;99.90;;;;;;5052217;28;20488;-64
2023/10/19 06:15:25;;;;;;;28.43;17.70;;;6.40;99.90;;;;;;5043271;28;20453;-63
2023/10/19 06:17:52;;;;;;;27.53;18.83;;;6.40;99.90;;;;;;5051598;28;20876;-64
2023/10/19 06:20:24;;;;;;;26.13;18.00;;;6.30;99.90;;;;;;5051133;28;20461;-62
2023/10/19 06:22:55;;;;;;;27.50;18.93;;;6.30;99.90;;;;;;5050352;28;20465;-63
2023/10/19 06:25:23;;;;;;;29.40;18.47;;;6.20;99.90;;;;;;5051474;28;20432;-63
2023/10/19 06:27:49;;;;;;;23.00;18.20;;;6.20;99.90;;;;;;5055383;28;20418;-63
2023/10/19 06:30:19;;;;;;;26.83;19.00;;;6.10;99.90;;;;;;5047042;28;20540;-64
2023/10/19 06:32:50;;;;;;;31.30;18.43;;;6.20;99.90;;;;;;5058972;28;20447;-67
2023/10/19 06:35:16;;;;;;;23.93;19.17;;;6.10;99.90;;;;;;5050881;28;20441;-63
2023/10/19 06:37:43;;;;;;;28.87;20.50;;;6.10;99.90;;;;;;5055628;28;20473;-64
2023/10/19 06:40:11;;;;;;;30.40;20.37;;;6.10;99.90;;;;;;5048796;28;20469;-63
2023/10/19 06:42:37;;;;;;;41.37;26.27;;;6.10;99.90;;;;;;5050737;28;20425;-65
2023/10/19 06:45:03;;;;;;;32.10;23.80;;;6.40;99.90;;;;;;5056877;28;20416;-65
2023/10/19 06:47:29;;;;;;;32.27;21.23;;;6.90;99.90;;;;;;5049186;28;20857;-62
2023/10/19 06:49:55;;;;;;;30.80;21.67;;;6.60;99.90;;;;;;5049748;28;20507;-62
2023/10/19 06:52:21;;;;;;;30.83;18.93;;;6.30;99.90;;;;;;5061208;28;20186;-63
2023/10/19 06:54:47;;;;;;;27.77;19.73;;;6.20;99.90;;;;;;5052849;28;20410;-63
2023/10/19 06:57:13;;;;;;;30.77;19.20;;;6.20;99.90;;;;;;5050318;28;20475;-60
2023/10/19 06:59:38;;;;;;;25.47;19.20;;;6.10;99.90;;;;;;5049562;28;20274;-63
2023/10/19 07:02:04;;;;;;;27.23;19.07;;;6.10;99.90;;;;;;5046773;28;20525;-62
2023/10/19 07:04:30;;;;;;;26.00;17.40;;;6.10;99.90;;;;;;5054450;28;20201;-63
2023/10/19 07:06:56;;;;;;;24.87;20.70;;;6.10;99.90;;;;;;5049100;28;20202;-63
2023/10/19 07:09:23;;;;;;;32.67;20.07;;;6.20;99.90;;;;;;5050570;28;20190;-62
2023/10/19 07:11:52;;;;;;;27.80;17.30;;;6.20;99.90;;;;;;5059459;28;20508;-63
2023/10/19 07:14:19;;;;;;;30.83;19.67;;;6.20;99.90;;;;;;5047937;28;20897;-63
2023/10/19 07:16:44;;;;;;;29.43;19.00;;;6.30;99.90;;;;;;5046172;28;21195;-63
2023/10/19 07:19:10;;;;;;;24.87;19.50;;;6.30;99.90;;;;;;5050202;28;20493;-63
2023/10/19 07:21:37;;;;;;;29.77;21.30;;;6.30;99.90;;;;;;5048149;28;20623;-63
2023/10/19 07:24:05;;;;;;;23.10;18.50;;;6.30;99.90;;;;;;5053790;28;20225;-62
2023/10/19 07:26:33;;;;;;;27.70;19.33;;;6.30;99.90;;;;;;5048881;28;20545;-63
2023/10/19 07:28:59;;;;;;;25.00;18.97;;;6.40;99.90;;;;;;5049066;28;20499;-63
2023/10/19 07:31:27;;;;;;;27.43;20.40;;;6.40;99.90;;;;;;5048782;28;20518;-62
2023/10/19 07:33:55;;;;;;;24.37;18.00;;;6.50;99.90;;;;;;5054260;28;21219;-63
2023/10/19 07:36:23;;;;;;;26.50;17.10;;;6.50;99.90;;;;;;5057874;28;20411;-63
2023/10/19 07:38:49;;;;;;;21.90;17.13;;;6.60;99.90;;;;;;5049222;28;20730;-63
2023/10/19 07:41:15;;;;;;;24.73;18.53;;;6.60;99.90;;;;;;5058391;28;20476;-64
2023/10/19 07:43:40;;;;;;;26.63;18.37;;;6.60;99.90;;;;;;5027746;28;20203;-64
2023/10/19 07:46:08;;;;;;;20.43;16.63;;;6.70;99.90;;;;;;5059547;28;20253;-63
2023/10/19 07:48:33;;;;;;;23.17;16.97;;;6.70;99.90;;;;;;5054297;28;20514;-62
2023/10/19 07:50:59;;;;;;;23.80;18.33;;;6.70;99.90;;;;;;5053982;28;20444;-63
2023/10/19 07:53:25;;;;;;;26.10;17.30;;;6.80;99.90;;;;;;5054677;28;20204;-62
2023/10/19 07:55:51;;;;;;;28.33;18.67;;;7.00;99.90;;;;;;5061066;28;20258;-62
2023/10/19 07:58:16;;;;;;;22.13;16.97;;;6.90;99.90;;;;;;5051770;28;20525;-63
2023/10/19 08:00:42;;;;;;;24.57;17.40;;;6.90;99.90;;;;;;5050952;28;20285;-62
2023/10/19 08:03:08;;;;;;;20.50;16.60;;;7.00;99.90;;;;;;5067890;28;20223;-65
2023/10/19 08:05:36;;;;;;;24.70;18.13;;;7.00;99.90;;;;;;5057121;28;20226;-63
2023/10/19 08:08:04;;;;;;;24.47;16.20;;;6.90;99.90;;;;;;5064184;28;20444;-69
2023/10/19 08:10:30;;;;;;;23.57;15.87;;;6.90;99.90;;;;;;5053430;28;20437;-69
2023/10/19 08:12:55;;;;;;;23.20;15.57;;;6.90;99.90;;;;;;5041029;28;20512;-70
2023/10/19 08:15:21;;;;;;;23.87;17.07;;;6.90;99.90;;;;;;5046091;28;20715;-65
2023/10/19 08:17:54;;;;;;;24.87;14.83;;;6.90;99.90;;;;;;5044427;28;20190;-65
2023/10/19 08:20:23;;;;;;;25.63;16.40;;;7.00;99.90;;;;;;5041293;28;20457;-66
2023/10/19 08:22:53;;;;;;;26.67;18.77;;;7.00;99.90;;;;;;5046090;28;20451;-66
2023/10/19 08:25:20;;;;;;;23.60;17.47;;;7.20;99.90;;;;;;5038309;28;20417;-67
2023/10/19 08:27:51;;;;;;;24.87;16.40;;;7.10;99.90;;;;;;5046596;28;20491;-67
2023/10/19 08:30:21;;;;;;;24.80;16.30;;;7.10;99.90;;;;;;5042537;28;20522;-63
2023/10/19 08:32:47;;;;;;;28.17;17.30;;;7.10;99.90;;;;;;5041783;28;20450;-62
2023/10/19 08:35:14;;;;;;;30.10;16.40;;;7.10;99.90;;;;;;5047806;28;20519;-63
2023/10/19 08:37:40;;;;;;;25.60;17.07;;;7.10;99.90;;;;;;5042387;28;20422;-64
2023/10/19 08:40:18;;;;;;;23.10;15.43;;;7.20;99.90;;;;;;5047471;28;20480;-64
2023/10/19 08:42:46;;;;;;;18.40;15.27;;;7.20;99.90;;;;;;5054039;28;20452;-64
2023/10/19 08:45:13;;;;;;;29.63;21.03;;;7.20;99.90;;;;;;5047250;28;20756;-69
2023/10/19 08:48:00;;;;;;;22.87;17.00;;;7.30;99.90;;;;;;5032270;28;20430;-63
2023/10/19 08:50:31;;;;;;;27.23;16.50;;;7.30;99.90;;;;;;5047611;28;20499;-63
2023/10/19 08:52:58;;;;;;;21.90;15.10;;;7.30;99.90;;;;;;5052760;28;20437;-62
2023/10/19 08:55:25;;;;;;;25.90;18.13;;;7.30;99.90;;;;;;5041226;28;20415;-62
2023/10/19 08:57:52;;;;;;;20.50;15.80;;;7.50;99.90;;;;;;5052509;28;20434;-64
2023/10/19 09:00:19;;;;;;;23.73;17.70;;;7.50;99.90;;;;;;5047482;28;20469;-63
2023/10/19 09:02:48;;;;;;;28.57;18.20;;;7.50;99.90;;;;;;5050661;28;20436;-64
2023/10/19 09:05:22;;;;;;;22.60;15.43;;;7.50;99.90;;;;;;5044641;28;20438;-63
2023/10/19 09:07:55;;;;;;;22.70;16.83;;;7.50;99.90;;;;;;5046481;28;20446;-64
2023/10/19 09:10:31;;;;;;;21.27;16.47;;;7.50;99.90;;;;;;5045842;28;20496;-64
2023/10/19 09:13:07;;;;;;;21.00;15.23;;;7.60;99.90;;;;;;5056499;28;20451;-64
2023/10/19 09:15:33;;;;;;;23.97;17.20;;;7.70;99.90;;;;;;5041370;28;20427;-64
2023/10/19 09:18:13;;;;;;;20.80;16.50;;;7.70;99.90;;;;;;5043454;28;20500;-63
2023/10/19 09:20:38;;;;;;;24.30;15.03;;;7.80;99.90;;;;;;5050129;28;20475;-66
2023/10/19 09:23:07;;;;;;;24.23;15.40;;;7.80;99.90;;;;;;5048554;28;20530;-63
2023/10/19 09:25:34;;;;;;;28.03;18.63;;;7.90;99.90;;;;;;5046526;28;20181;-64
2023/10/19 09:28:02;;;;;;;22.33;16.03;;;7.90;99.90;;;;;;5051359;28;20534;-63
2023/10/19 09:30:30;;;;;;;22.23;15.33;;;7.90;99.90;;;;;;5059665;28;20449;-63
2023/10/19 09:32:57;;;;;;;22.63;16.20;;;7.90;99.90;;;;;;5051757;28;20447;-64
2023/10/19 09:35:27;;;;;;;18.57;14.60;;;7.90;99.90;;;;;;5041121;28;20438;-64
2023/10/19 09:37:54;;;;;;;19.27;15.20;;;8.00;99.90;;;;;;5048469;28;20482;-64
2023/10/19 09:40:21;;;;;;;20.50;15.50;;;8.00;99.90;;;;;;5045285;28;20462;-63
2023/10/19 09:42:49;;;;;;;22.67;15.77;;;8.00;99.90;;;;;;5058299;28;20519;-64
2023/10/19 09:45:19;;;;;;;30.53;16.70;;;8.10;99.90;;;;;;5048887;28;20620;-64
2023/10/19 09:47:51;;;;;;;22.73;16.23;;;8.10;99.90;;;;;;5055767;28;20496;-64
2023/10/19 09:50:17;;;;;;;19.43;16.20;;;8.20;99.90;;;;;;5048426;28;20519;-64
2023/10/19 09:52:43;;;;;;;19.93;15.73;;;8.10;99.90;;;;;;5044031;28;20494;-64
2023/10/19 09:55:26;;;;;;;25.27;16.23;;;8.20;99.90;;;;;;5041353;28;20186;-65
2023/10/19 09:57:58;;;;;;;18.53;15.60;;;8.20;99.90;;;;;;5043807;28;20560;-64
2023/10/19 10:00:24;;;;;;;24.50;16.53;;;8.20;99.90;;;;;;5046559;28;20879;-65
2023/10/19 10:02:51;;;;;;;24.10;17.87;;;8.20;99.90;;;;;;5043136;28;20451;-64
2023/10/19 10:05:44;;;;;;;24.13;17.27;;;8.20;99.90;;;;;;5044360;28;20178;-64
2023/10/19 10:08:19;;;;;;;21.00;16.80;;;8.30;99.90;;;;;;5055333;28;20450;-64
2023/10/19 10:10:46;;;;;;;20.60;16.03;;;8.30;99.90;;;;;;5052449;28;20917;-65
2023/10/19 10:13:24;;;;;;;21.30;14.70;;;8.30;99.90;;;;;;5048560;28;20472;-65
2023/10/19 10:15:54;;;;;;;18.63;14.93;;;8.20;99.90;;;;;;5045213;28;21679;-65
2023/10/19 10:18:20;;;;;;;17.60;14.57;;;8.30;99.90;;;;;;5046996;28;20818;-65
2023/10/19 10:20:47;;;;;;;22.80;16.30;;;8.30;99.90;;;;;;5057757;28;20465;-65
2023/10/19 10:23:32;;;;;;;20.00;14.53;;;8.20;99.90;;;;;;5046958;28;20500;-67
2023/10/19 10:25:58;;;;;;;23.87;16.77;;;8.30;99.90;;;;;;5049675;28;20409;-72
2023/10/19 10:28:24;;;;;;;21.97;18.00;;;8.30;99.90;;;;;;5054607;28;20450;-65
2023/10/19 10:31:09;;;;;;;23.13;16.00;;;8.30;99.90;;;;;;5052448;28;20428;-65
2023/10/19 10:33:54;;;;;;;26.63;17.23;;;8.30;99.90;;;;;;5053131;28;20967;-65
2023/10/19 10:36:20;;;;;;;24.60;17.17;;;8.30;99.90;;;;;;5055608;28;20671;-65
2023/10/19 10:38:51;;;;;;;22.60;17.07;;;8.40;99.90;;;;;;5040537;28;20426;-65
2023/10/19 10:41:22;;;;;;;22.47;17.40;;;8.10;99.90;;;;;;5043920;28;20472;-65
2023/10/19 10:43:52;;;;;;;25.13;17.13;;;8.00;99.90;;;;;;5041422;28;20457;-63
2023/10/19 10:46:18;;;;;;;23.57;17.80;;;7.90;99.90;;;;;;5042510;28;20435;-65
2023/10/19 10:48:44;;;;;;;27.80;18.10;;;7.80;99.90;;;;;;5032179;28;20420;-64
2023/10/19 10:51:23;;;;;;;27.00;18.30;;;7.70;99.90;;;;;;5046255;28;20440;-65
2023/10/19 10:53:51;;;;;;;25.47;18.23;;;7.60;99.90;;;;;;5040498;28;20208;-65
2023/10/19 10:56:18;;;;;;;25.60;19.67;;;7.50;99.90;;;;;;5044861;28;20907;-65
2023/10/19 10:58:44;;;;;;;22.73;18.10;;;7.50;99.90;;;;;;5031539;28;20526;-64
2023/10/19 11:01:10;;;;;;;25.10;20.60;;;7.50;99.90;;;;;;5047979;28;20514;-64
2023/10/19 11:03:37;;;;;;;33.13;21.00;;;7.50;99.90;;;;;;5048698;28;20432;-65
2023/10/19 11:06:04;;;;;;;28.37;20.10;;;7.50;99.90;;;;;;5054642;28;20171;-61
2023/10/19 11:08:32;;;;;;;32.60;20.70;;;7.40;99.90;;;;;;5050132;28;20767;-67
2023/10/19 11:11:04;;;;;;;25.73;18.87;;;7.40;99.90;;;;;;5046769;28;20438;-62
2023/10/19 11:13:32;;;;;;;27.57;20.70;;;7.40;99.90;;;;;;5044213;28;20957;-65
2023/10/19 11:16:00;;;;;;;30.20;20.63;;;7.40;99.90;;;;;;5043153;28;20454;-66
2023/10/19 11:18:29;;;;;;;30.20;19.70;;;7.40;99.90;;;;;;5058726;28;20427;-67
2023/10/19 11:20:56;;;;;;;28.00;21.47;;;7.40;99.90;;;;;;5054388;28;20462;-67
2023/10/19 11:23:52;;;;;;;33.27;21.93;;;7.40;99.90;;;;;;5058025;28;20456;-73
2023/10/19 11:26:21;;;;;;;28.10;19.80;;;7.40;99.90;;;;;;5052455;28;20512;-65
2023/10/19 11:28:56;;;;;;;27.63;20.90;;;7.40;99.90;;;;;;5051178;28;21849;-64
2023/10/19 11:31:22;;;;;;;25.10;20.00;;;7.40;99.90;;;;;;5061709;28;20422;-67
2023/10/19 11:33:49;;;;;;;30.07;21.80;;;7.30;99.90;;;;;;5056029;28;20508;-67
2023/10/19 11:36:17;;;;;;;27.30;19.67;;;7.30;99.90;;;;;;5029776;28;20487;-66
2023/10/19 11:38:47;;;;;;;30.20;21.03;;;7.30;99.90;;;;;;5045747;28;20767;-66
2023/10/19 11:41:14;;;;;;;261.00;168.20;;;7.30;99.90;;;;;;5056652;28;20465;-63
2023/10/19 11:43:42;;;;;;;117.40;78.70;;;7.40;99.90;;;;;;5053702;28;20836;-67
2023/10/19 11:46:08;;;;;;;60.43;41.10;;;8.20;99.90;;;;;;5053281;28;20943;-64
2023/10/19 11:48:35;;;;;;;42.37;30.63;;;8.60;99.90;;;;;;5056596;28;20408;-68
2023/10/19 11:51:03;;;;;;;43.20;30.07;;;8.40;99.90;;;;;;5045904;28;20793;-65
2023/10/19 11:53:34;;;;;;;25.90;20.57;;;8.40;99.90;;;;;;5056876;28;20446;-67
2023/10/19 11:56:05;;;;;;;32.03;21.87;;;7.90;99.90;;;;;;5037239;28;20443;-66
2023/10/19 11:58:35;;;;;;;28.80;20.53;;;7.70;99.90;;;;;;5052193;28;20509;-65
2023/10/19 12:01:08;;;;;;;25.07;21.70;;;7.60;99.90;;;;;;5049333;28;20454;-65
2023/10/19 12:03:39;;;;;;;29.83;21.37;;;7.50;99.90;;;;;;5062161;28;20432;-61
2023/10/19 12:06:08;;;;;;;29.80;21.97;;;7.50;99.90;;;;;;5053345;28;20433;-64
2023/10/19 12:08:34;;;;;;;26.90;21.17;;;7.40;99.90;;;;;;5054089;28;20421;-62
2023/10/19 12:11:16;;;;;;;32.63;21.70;;;7.50;99.90;;;;;;5060630;28;20453;-63
2023/10/19 12:13:45;;;;;;;34.80;23.13;;;7.50;99.90;;;;;;5060452;28;20520;-62
2023/10/19 12:16:12;;;;;;;28.37;22.13;;;7.50;99.90;;;;;;5047590;28;20422;-61
2023/10/19 12:18:44;;;;;;;35.17;24.83;;;7.40;99.90;;;;;;5054035;28;20500;-63
2023/10/19 12:21:13;;;;;;;26.63;21.47;;;7.40;99.90;;;;;;5052824;28;20991;-63
2023/10/19 12:23:43;;;;;;;33.23;22.90;;;7.40;99.90;;;;;;5045004;28;20541;-64
2023/10/19 12:26:12;;;;;;;34.13;22.73;;;7.50;99.90;;;;;;5052790;28;20413;-64
2023/10/19 12:28:38;;;;;;;35.87;23.57;;;7.40;99.90;;;;;;5048568;28;20524;-62
2023/10/19 12:31:13;;;;;;;35.17;25.80;;;7.50;99.90;;;;;;5054535;28;20783;-63
2023/10/19 12:33:41;;;;;;;33.13;24.73;;;7.50;99.90;;;;;;5045736;28;20421;-63
2023/10/19 12:36:31;;;;;;;37.20;24.40;;;7.50;99.90;;;;;;5060600;28;20417;-63
2023/10/19 12:38:57;;;;;;;35.27;25.13;;;7.40;99.90;;;;;;5059716;28;20430;-63
2023/10/19 12:41:27;;;;;;;36.20;26.10;;;7.50;99.90;;;;;;5026012;28;20453;-63
2023/10/19 12:43:57;;;;;;;35.77;25.33;;;7.50;99.90;;;;;;5049951;28;20533;-63
2023/10/19 12:46:24;;;;;;;33.87;25.77;;;7.50;99.90;;;;;;5034238;28;20408;-63
2023/10/19 12:48:51;;;;;;;30.50;23.40;;;7.50;99.90;;;;;;5047216;28;20760;-62
2023/10/19 12:51:23;;;;;;;33.10;25.70;;;7.50;99.90;;;;;;5061837;28;20465;-64
2023/10/19 12:53:51;;;;;;;40.90;25.33;;;7.50;99.90;;;;;;5047436;28;20455;-63
2023/10/19 12:56:17;;;;;;;33.27;26.40;;;7.50;99.90;;;;;;5050762;28;20484;-62
2023/10/19 12:58:43;;;;;;;34.93;23.47;;;7.50;99.90;;;;;;5057134;28;20415;-62
2023/10/19 13:01:16;;;;;;;35.67;24.43;;;7.50;99.90;;;;;;5046282;28;20527;-63
2023/10/19 13:03:45;;;;;;;35.33;25.97;;;7.40;99.90;;;;;;5045044;28;20201;-64
2023/10/19 13:06:13;;;;;;;34.03;25.50;;;7.50;99.90;;;;;;5046144;28;20979;-63
2023/10/19 13:08:43;;;;;;;33.30;25.97;;;7.50;99.90;;;;;;5057149;28;20430;-63
2023/10/19 13:11:15;;;;;;;31.50;23.63;;;7.40;99.90;;;;;;5068512;28;20424;-63
2023/10/19 13:13:41;;;;;;;31.30;25.33;;;7.40;99.90;;;;;;5045368;28;20904;-61